createdAt,value
2019-03-02T00:02:00.741Z,63.50
2019-03-02T00:04:09.632Z,63.60
2019-03-02T00:06:12.763Z,63.60
2019-03-02T00:08:17.759Z,63.70
2019-03-02T00:10:23.972Z,63.80
2019-03-02T00:12:32.132Z,63.90
2019-03-02T00:14:36.593Z,64.00
2019-03-02T00:16:43.285Z,64.10
2019-03-02T00:18:48.471Z,64.20
2019-03-02T00:20:55.530Z,64.10
2019-03-02T00:23:00.338Z,65.10
2019-03-02T00:25:06.101Z,64.10
2019-03-02T00:27:11.166Z,64.20
2019-03-02T00:29:16.256Z,65.10
2019-03-02T00:31:21.358Z,64.30
2019-03-02T00:33:26.292Z,64.30
2019-03-02T00:35:31.280Z,64.30
2019-03-02T00:37:36.298Z,64.30
2019-03-02T00:39:41.894Z,64.30
2019-03-02T00:41:47.015Z,64.30
2019-03-02T00:43:52.010Z,64.30
2019-03-02T00:45:57.522Z,64.30
2019-03-02T00:48:02.587Z,64.30
2019-03-02T00:50:08.261Z,64.30
2019-03-02T00:52:13.431Z,64.30
2019-03-02T00:54:18.575Z,64.30
2019-03-02T00:56:23.974Z,64.30
2019-03-02T00:58:29.195Z,64.30
2019-03-02T01:00:34.888Z,64.40
2019-03-02T01:02:40.514Z,64.30
2019-03-02T01:04:45.678Z,64.30
2019-03-02T01:06:50.669Z,64.30
2019-03-02T01:08:55.897Z,64.30
2019-03-02T01:11:01.195Z,64.30
2019-03-02T01:13:06.577Z,64.40
2019-03-02T01:15:13.847Z,64.40
2019-03-02T01:17:18.891Z,64.40
2019-03-02T01:19:23.974Z,64.40
2019-03-02T01:21:28.998Z,64.40
2019-03-02T01:23:34.160Z,64.40
2019-03-02T01:25:39.650Z,64.50
2019-03-02T01:27:45.543Z,64.40
2019-03-02T01:29:51.713Z,64.50
2019-03-02T01:31:57.476Z,64.30
2019-03-02T01:34:04.696Z,64.30
2019-03-02T01:36:09.798Z,64.30
2019-03-02T01:38:15.719Z,64.30
2019-03-02T01:40:21.640Z,64.30
2019-03-02T01:42:29.801Z,64.30
2019-03-02T01:44:33.916Z,64.30
2019-03-02T01:46:40.897Z,64.50
2019-03-02T01:48:45.693Z,64.40
2019-03-02T01:50:51.376Z,64.50
2019-03-02T01:52:56.537Z,64.60
2019-03-02T01:55:01.848Z,64.50
2019-03-02T01:57:06.837Z,64.60
2019-03-02T01:59:12.102Z,64.60
2019-03-02T02:01:20.863Z,64.50
2019-03-02T02:03:26.792Z,64.60
2019-03-02T02:05:34.616Z,64.70
2019-03-02T02:07:40.371Z,64.80
2019-03-02T02:09:45.424Z,64.80
2019-03-02T02:11:53.401Z,64.90
2019-03-02T02:13:59.974Z,64.80
2019-03-02T02:16:05.659Z,64.90
2019-03-02T02:18:11.896Z,64.90
2019-03-02T02:20:17.832Z,64.90
2019-03-02T02:22:23.023Z,64.80
2019-03-02T02:24:28.351Z,64.80
2019-03-02T02:26:34.087Z,64.70
2019-03-02T02:28:39.113Z,64.80
2019-03-02T02:30:44.559Z,64.70
2019-03-02T02:32:49.881Z,64.80
2019-03-02T02:34:56.457Z,64.80
2019-03-02T02:37:02.100Z,64.90
2019-03-02T02:39:09.938Z,64.90
2019-03-02T02:41:22.360Z,65.10
2019-03-02T02:43:22.438Z,65.20
2019-03-02T02:45:28.140Z,65.10
2019-03-02T02:47:33.235Z,66.00
2019-03-02T02:49:38.493Z,65.20
2019-03-02T02:51:44.471Z,65.30
2019-03-02T02:53:50.962Z,65.40
2019-03-02T02:55:56.352Z,65.40
2019-03-02T02:58:01.350Z,65.40
2019-03-02T03:00:18.126Z,65.30
2019-03-02T03:02:25.084Z,65.30
2019-03-02T03:04:32.499Z,65.40
2019-03-02T03:06:36.768Z,65.40
2019-03-02T03:08:46.603Z,65.40
2019-03-02T03:10:51.830Z,65.40
2019-03-02T03:13:01.816Z,65.40
2019-03-02T03:15:03.872Z,65.50
2019-03-02T03:17:09.327Z,65.50
2019-03-02T03:19:14.746Z,65.50
2019-03-02T03:21:27.109Z,65.50
2019-03-02T03:23:26.611Z,65.60
2019-03-02T03:25:32.103Z,65.50
2019-03-02T03:27:37.180Z,65.90
2019-03-02T03:29:44.493Z,65.70
2019-03-02T03:31:48.869Z,65.70
2019-03-02T03:33:54.120Z,65.70
2019-03-02T03:35:59.214Z,65.70
2019-03-02T03:38:04.324Z,65.80
2019-03-02T03:40:10.857Z,65.60
2019-03-02T03:42:22.257Z,65.70
2019-03-02T03:44:26.189Z,65.70
2019-03-02T03:46:29.321Z,65.80
2019-03-02T03:48:35.079Z,66.00
2019-03-02T03:50:40.104Z,66.00
2019-03-02T03:52:48.905Z,66.00
2019-03-02T03:54:52.530Z,66.10
2019-03-02T03:56:57.859Z,66.00
2019-03-02T03:59:03.076Z,66.00
2019-03-02T04:01:17.229Z,66.00
2019-03-02T04:03:15.706Z,66.00
2019-03-02T04:05:20.936Z,66.20
2019-03-02T04:07:26.182Z,66.00
2019-03-02T04:09:31.340Z,66.60
2019-03-02T04:11:37.813Z,65.90
2019-03-02T04:13:44.960Z,65.80
2019-03-02T04:15:51.090Z,65.80
2019-03-02T04:17:56.277Z,65.70
2019-03-02T04:20:01.371Z,65.90
2019-03-02T04:22:08.902Z,65.90
2019-03-02T04:24:14.350Z,65.70
2019-03-02T04:26:19.817Z,65.80
2019-03-02T04:28:27.611Z,65.70
2019-03-02T04:30:32.908Z,65.80
2019-03-02T04:32:38.446Z,65.80
2019-03-02T04:34:43.513Z,65.70
2019-03-02T04:36:49.208Z,65.70
2019-03-02T04:38:54.226Z,66.50
2019-03-02T04:41:00.702Z,65.60
2019-03-02T04:43:05.991Z,65.70
2019-03-02T04:45:11.105Z,65.70
2019-03-02T04:47:16.631Z,65.80
2019-03-02T04:49:21.928Z,65.90
2019-03-02T04:51:27.291Z,65.90
2019-03-02T04:53:32.640Z,65.90
2019-03-02T04:55:37.644Z,66.50
2019-03-02T04:57:43.220Z,65.90
2019-03-02T04:59:48.731Z,65.80
2019-03-02T05:01:53.904Z,66.60
2019-03-02T05:03:58.955Z,65.90
2019-03-02T05:06:04.458Z,65.90
2019-03-02T05:08:09.499Z,65.80
2019-03-02T05:10:14.631Z,65.90
2019-03-02T05:12:19.532Z,65.90
2019-03-02T05:14:24.900Z,66.00
2019-03-02T05:16:30.156Z,66.00
2019-03-02T05:18:35.316Z,66.10
2019-03-02T05:20:41.032Z,66.00
2019-03-02T05:22:50.731Z,66.10
2019-03-02T05:24:54.475Z,66.00
2019-03-02T05:27:00.015Z,66.10
2019-03-02T05:29:05.203Z,66.10
2019-03-02T05:31:10.546Z,66.10
2019-03-02T05:33:16.002Z,66.00
2019-03-02T05:35:21.267Z,66.10
2019-03-02T05:37:26.915Z,66.20
2019-03-02T05:39:32.579Z,66.10
2019-03-02T05:41:39.168Z,66.20
2019-03-02T05:43:44.371Z,66.10
2019-03-02T05:45:49.477Z,66.10
2019-03-02T05:47:54.796Z,66.20
2019-03-02T05:50:00.271Z,66.20
2019-03-02T05:52:05.352Z,66.10
2019-03-02T05:54:10.362Z,66.10
2019-03-02T05:56:15.829Z,66.20
2019-03-02T05:58:20.924Z,66.10
2019-03-02T06:00:26.657Z,66.20
2019-03-02T06:02:31.756Z,66.20
2019-03-02T06:04:36.894Z,66.10
2019-03-02T06:06:42.330Z,66.20
2019-03-02T06:08:47.584Z,66.30
2019-03-02T06:10:52.676Z,66.10
2019-03-02T06:12:57.685Z,66.20
2019-03-02T06:15:04.126Z,66.20
2019-03-02T06:17:09.679Z,66.10
2019-03-02T06:19:17.826Z,66.20
2019-03-02T06:21:22.086Z,66.30
2019-03-02T06:23:30.000Z,66.20
2019-03-02T06:25:34.184Z,66.10
2019-03-02T06:27:39.174Z,66.30
2019-03-02T06:29:47.236Z,66.10
2019-03-02T06:31:53.944Z,66.30
2019-03-02T06:33:59.025Z,66.30
2019-03-02T06:36:08.436Z,66.30
2019-03-02T06:38:11.594Z,66.30
2019-03-02T06:40:19.715Z,66.40
2019-03-02T06:42:24.070Z,67.00
2019-03-02T06:44:30.797Z,66.20
2019-03-02T06:46:35.766Z,66.30
2019-03-02T06:48:41.577Z,66.20
2019-03-02T06:50:50.209Z,66.30
2019-03-02T06:52:57.985Z,66.40
2019-03-02T06:55:02.327Z,66.30
2019-03-02T06:57:10.693Z,66.20
2019-03-02T06:59:14.530Z,66.20
2019-03-02T07:01:20.806Z,66.20
2019-03-02T07:03:26.299Z,66.40
2019-03-02T07:05:34.023Z,66.40
2019-03-02T07:07:38.682Z,66.20
2019-03-02T07:09:45.248Z,66.40
2019-03-02T07:11:50.500Z,66.20
2019-03-02T07:13:56.326Z,66.20
2019-03-02T07:16:02.571Z,66.30
2019-03-02T07:18:32.577Z,66.30
2019-03-02T07:20:38.305Z,66.50
2019-03-02T07:22:43.568Z,66.50
2019-03-02T07:24:48.750Z,66.40
2019-03-02T07:26:54.536Z,66.40
2019-03-02T07:29:00.351Z,66.40
2019-03-02T07:31:05.799Z,66.50
2019-03-02T07:33:11.268Z,66.50
2019-03-02T07:35:19.480Z,66.40
2019-03-02T07:37:23.475Z,67.20
2019-03-02T07:39:32.648Z,66.40
2019-03-02T07:41:35.959Z,66.40
2019-03-02T07:43:42.145Z,66.30
2019-03-02T07:45:47.893Z,66.60
2019-03-02T07:47:56.020Z,66.60
2019-03-02T07:49:59.773Z,66.70
2019-03-02T07:52:04.841Z,66.80
2019-03-02T07:54:10.218Z,66.60
2019-03-02T07:56:16.053Z,66.70
2019-03-02T07:58:21.330Z,66.80
2019-03-02T08:00:26.433Z,66.70
2019-03-02T08:02:31.459Z,66.70
2019-03-02T08:04:38.487Z,66.80
2019-03-02T08:06:44.301Z,66.80
2019-03-02T08:08:50.015Z,66.70
2019-03-02T08:10:55.343Z,66.70
2019-03-02T08:13:00.876Z,66.80
2019-03-02T08:15:09.231Z,66.90
2019-03-02T08:17:14.691Z,67.00
2019-03-02T08:19:20.026Z,67.00
2019-03-02T08:21:25.712Z,67.10
2019-03-02T08:23:31.358Z,67.40
2019-03-02T08:25:37.238Z,67.50
2019-03-02T08:27:42.603Z,67.50
2019-03-02T08:29:48.165Z,67.50
2019-03-02T08:31:53.647Z,67.70
2019-03-02T08:33:58.661Z,67.80
2019-03-02T08:36:03.769Z,68.00
2019-03-02T08:38:08.871Z,67.80
2019-03-02T08:40:14.878Z,67.90
2019-03-02T08:42:19.917Z,68.10
2019-03-02T08:44:25.129Z,68.20
2019-03-02T08:46:30.609Z,68.20
2019-03-02T08:48:35.978Z,68.30
2019-03-02T08:50:41.340Z,68.40
2019-03-02T08:52:46.801Z,68.50
2019-03-02T08:54:53.527Z,68.40
2019-03-02T08:56:59.368Z,68.30
2019-03-02T08:59:04.465Z,68.50
2019-03-02T09:01:15.448Z,68.60
2019-03-02T09:03:18.880Z,68.60
2019-03-02T09:05:42.813Z,68.60
2019-03-02T09:07:31.014Z,68.70
2019-03-02T09:09:36.123Z,68.80
2019-03-02T09:11:44.521Z,68.70
2019-03-02T09:13:47.996Z,68.80
2019-03-02T09:15:53.275Z,68.70
2019-03-02T09:18:00.447Z,68.70
2019-03-02T09:20:05.983Z,68.70
2019-03-02T09:22:10.982Z,68.70
2019-03-02T09:24:16.146Z,68.70
2019-03-02T09:26:21.263Z,68.70
2019-03-02T09:28:27.195Z,68.70
2019-03-02T09:30:32.745Z,68.70
2019-03-02T09:32:37.830Z,68.70
2019-03-02T09:34:42.930Z,68.70
2019-03-02T09:36:48.036Z,67.70
2019-03-02T09:38:54.161Z,67.50
2019-03-02T09:41:00.090Z,66.70
2019-03-02T09:43:05.250Z,67.20
2019-03-02T09:45:13.052Z,67.30
2019-03-02T09:47:18.390Z,67.50
2019-03-02T09:49:23.926Z,67.50
2019-03-02T09:51:29.441Z,67.40
2019-03-02T09:53:34.617Z,67.50
2019-03-02T09:55:40.333Z,67.60
2019-03-02T09:57:47.435Z,67.60
2019-03-02T09:59:52.893Z,67.60
2019-03-02T10:01:58.456Z,67.40
2019-03-02T10:04:06.129Z,67.40
2019-03-02T10:06:11.383Z,67.50
2019-03-02T10:08:16.898Z,67.50
2019-03-02T10:10:25.236Z,67.40
2019-03-02T10:12:29.310Z,67.40
2019-03-02T10:14:35.169Z,67.40
2019-03-02T10:16:40.287Z,67.40
2019-03-02T10:18:49.820Z,67.40
2019-03-02T10:20:53.017Z,67.30
2019-03-02T10:22:58.176Z,67.20
2019-03-02T10:25:03.632Z,67.10
2019-03-02T10:27:08.994Z,67.20
2019-03-02T10:29:14.039Z,67.10
2019-03-02T10:31:19.187Z,67.10
2019-03-02T10:33:24.271Z,67.20
2019-03-02T10:35:29.633Z,67.10
2019-03-02T10:37:34.681Z,67.10
2019-03-02T10:39:39.690Z,67.00
2019-03-02T10:41:44.787Z,67.00
2019-03-02T10:43:50.288Z,67.00
2019-03-02T10:45:56.153Z,67.00
2019-03-02T10:48:01.350Z,67.10
2019-03-02T10:50:13.575Z,67.20
2019-03-02T10:52:18.942Z,67.40
2019-03-02T10:54:24.356Z,67.50
2019-03-02T10:56:30.041Z,67.70
2019-03-02T10:58:38.649Z,67.80
2019-03-02T11:00:42.296Z,67.60
2019-03-02T11:02:47.711Z,67.30
2019-03-02T11:04:57.216Z,67.50
2019-03-02T11:07:27.659Z,67.50
2019-03-02T11:09:51.615Z,67.50
2019-03-02T11:12:18.795Z,67.60
2019-03-02T11:14:55.247Z,67.60
2019-03-02T11:17:19.739Z,67.70
2019-03-02T11:19:43.856Z,67.60
2019-03-02T11:22:10.836Z,67.60
2019-03-02T11:24:27.409Z,67.50
2019-03-02T11:26:39.794Z,67.20
2019-03-02T11:28:54.053Z,67.50
2019-03-02T11:31:20.761Z,67.50
2019-03-02T11:33:46.617Z,67.30
2019-03-02T11:36:15.091Z,67.00
2019-03-02T11:38:48.579Z,66.90
2019-03-02T11:41:12.810Z,66.70
2019-03-02T11:43:27.267Z,66.40
2019-03-02T11:45:40.605Z,66.30
2019-03-02T11:48:01.835Z,66.10
2019-03-02T11:50:18.028Z,66.10
2019-03-02T11:52:40.978Z,66.10
2019-03-02T11:55:00.884Z,66.00
2019-03-02T11:57:24.716Z,65.90
2019-03-02T11:59:51.810Z,65.70
2019-03-02T12:02:16.144Z,65.50
2019-03-02T12:04:39.890Z,65.30
2019-03-02T12:06:57.665Z,65.30
2019-03-02T12:09:11.061Z,65.20
2019-03-02T12:11:31.301Z,64.80
2019-03-02T12:13:55.094Z,64.60
2019-03-02T12:16:27.929Z,64.90
2019-03-02T12:18:46.363Z,64.70
2019-03-02T12:21:02.591Z,64.70
2019-03-02T12:23:33.993Z,64.50
2019-03-02T12:25:55.865Z,64.40
2019-03-02T12:28:22.455Z,64.30
2019-03-02T12:30:46.367Z,63.90
2019-03-02T12:33:09.398Z,63.90
2019-03-02T12:35:40.623Z,63.50
2019-03-02T12:37:53.326Z,63.60
2019-03-02T12:40:05.849Z,63.00
2019-03-02T12:42:30.436Z,62.50
2019-03-02T12:44:57.931Z,62.40
2019-03-02T12:47:33.360Z,62.30
2019-03-02T12:49:53.452Z,62.40
2019-03-02T12:52:08.404Z,62.40
2019-03-02T12:54:39.324Z,62.30
2019-03-02T12:57:04.912Z,62.00
2019-03-02T12:59:28.871Z,61.90
2019-03-02T13:01:40.376Z,62.70
2019-03-02T13:04:22.743Z,61.70
2019-03-02T13:06:46.403Z,62.10
2019-03-02T13:09:03.321Z,62.20
2019-03-02T13:11:25.791Z,62.70
2019-03-02T13:13:48.188Z,61.80
2019-03-02T13:16:15.314Z,61.60
2019-03-02T13:18:36.704Z,61.80
2019-03-02T13:21:07.001Z,62.40
2019-03-02T13:23:24.196Z,61.60
2019-03-02T13:25:46.959Z,61.50
2019-03-02T13:28:08.831Z,61.40
2019-03-02T13:30:51.196Z,60.80
2019-03-02T13:33:14.117Z,61.60
2019-03-02T13:35:28.414Z,60.90
2019-03-02T13:38:00.058Z,60.60
2019-03-02T13:40:26.435Z,60.30
2019-03-02T13:42:51.928Z,59.80
2019-03-02T13:45:19.166Z,59.70
2019-03-02T13:47:38.859Z,59.90
2019-03-02T13:49:54.232Z,59.90
2019-03-02T13:52:21.276Z,59.70
2019-03-02T13:54:48.484Z,59.80
2019-03-02T13:57:11.762Z,59.40
2019-03-02T13:59:22.336Z,58.80
2019-03-02T14:02:02.236Z,58.60
2019-03-02T14:04:43.075Z,58.20
2019-03-02T14:07:10.777Z,58.30
2019-03-02T14:09:25.863Z,58.10
2019-03-02T14:11:43.207Z,58.00
2019-03-02T14:14:08.297Z,58.00
2019-03-02T14:16:35.282Z,58.00
2019-03-02T14:18:52.704Z,57.80
2019-03-02T14:21:16.984Z,57.90
2019-03-02T14:23:59.679Z,58.00
2019-03-02T14:26:33.390Z,58.00
2019-03-02T14:28:49.304Z,58.10
2019-03-02T14:31:07.101Z,58.20
2019-03-02T14:33:36.804Z,58.80
2019-03-02T14:35:58.817Z,58.10
2019-03-02T14:38:35.275Z,58.20
2019-03-02T14:40:53.702Z,58.30
2019-03-02T14:43:19.941Z,58.50
2019-03-02T14:45:30.417Z,58.60
2019-03-02T14:47:47.441Z,58.70
2019-03-02T14:50:14.529Z,58.40
2019-03-02T14:52:33.275Z,58.50
2019-03-02T14:54:43.018Z,58.70
2019-03-02T14:57:13.643Z,58.80
2019-03-02T14:59:37.825Z,58.70
2019-03-02T15:02:17.739Z,58.90
2019-03-02T15:04:42.995Z,58.90
2019-03-02T15:06:58.079Z,58.70
2019-03-02T15:09:36.324Z,58.80
2019-03-02T15:12:05.920Z,58.80
2019-03-02T15:14:18.392Z,58.70
2019-03-02T15:16:41.236Z,58.90
2019-03-02T15:18:56.072Z,58.80
2019-03-02T15:21:11.537Z,58.60
2019-03-02T15:23:23.032Z,58.60
2019-03-02T15:25:49.422Z,58.60
2019-03-02T15:28:16.269Z,58.70
2019-03-02T15:30:43.682Z,58.80
2019-03-02T15:33:15.420Z,58.70
2019-03-02T15:35:33.613Z,58.70
2019-03-02T15:38:10.481Z,58.60
2019-03-02T15:40:37.449Z,58.70
2019-03-02T15:42:59.808Z,58.70
2019-03-02T15:45:24.869Z,58.60
2019-03-02T15:47:41.243Z,58.70
2019-03-02T15:50:03.968Z,58.80
2019-03-02T15:52:34.691Z,58.90
2019-03-02T15:54:55.130Z,58.90
2019-03-02T15:57:20.527Z,59.00
2019-03-02T15:59:36.077Z,59.00
2019-03-02T16:02:04.188Z,59.00
2019-03-02T16:04:31.887Z,59.00
2019-03-02T16:06:45.492Z,59.20
2019-03-02T16:09:25.227Z,59.20
2019-03-02T16:11:48.392Z,59.20
2019-03-02T16:14:11.337Z,59.40
2019-03-02T16:16:34.283Z,59.50
2019-03-02T16:18:49.175Z,59.80
2019-03-02T16:21:01.068Z,59.60
2019-03-02T16:23:11.849Z,59.80
2019-03-02T16:25:35.975Z,60.00
2019-03-02T16:27:50.078Z,60.10
2019-03-02T16:30:12.879Z,60.10
2019-03-02T16:32:40.625Z,60.20
2019-03-02T16:35:08.091Z,60.50
2019-03-02T16:37:44.300Z,60.50
2019-03-02T16:40:06.550Z,61.40
2019-03-02T16:42:34.053Z,60.70
2019-03-02T16:44:58.125Z,60.60
2019-03-02T16:47:22.251Z,60.90
2019-03-02T16:49:49.141Z,61.00
2019-03-02T16:52:12.668Z,61.20
2019-03-02T16:54:35.972Z,61.20
2019-03-02T16:56:57.589Z,61.50
2019-03-02T16:59:22.627Z,61.60
2019-03-02T17:01:49.884Z,61.60
2019-03-02T17:04:23.266Z,61.70
2019-03-02T17:06:34.505Z,61.70
2019-03-02T17:09:11.701Z,61.80
2019-03-02T17:11:40.978Z,62.00
2019-03-02T17:14:08.908Z,62.10
2019-03-02T17:16:22.185Z,62.20
2019-03-02T17:18:55.990Z,62.30
2019-03-02T17:21:16.571Z,62.40
2019-03-02T17:23:42.604Z,62.50
2019-03-02T17:25:51.466Z,62.70
2019-03-02T17:28:07.939Z,62.80
2019-03-02T17:30:27.438Z,62.90
2019-03-02T17:32:54.701Z,63.20
2019-03-02T17:35:21.053Z,63.30
2019-03-02T17:37:39.852Z,63.40
2019-03-02T17:40:05.873Z,63.40
2019-03-02T17:42:18.340Z,63.70
2019-03-02T17:44:41.456Z,63.80
2019-03-02T17:47:09.002Z,64.00
2019-03-02T17:49:28.781Z,64.40
2019-03-02T17:51:44.976Z,64.20
2019-03-02T17:54:09.155Z,64.40
2019-03-02T17:56:41.030Z,64.50
2019-03-02T17:58:52.410Z,64.60
2019-03-02T18:01:19.574Z,64.80
2019-03-02T18:03:34.266Z,64.80
2019-03-02T18:05:57.419Z,64.90
2019-03-02T18:08:20.817Z,65.00
2019-03-02T18:10:57.235Z,65.20
2019-03-02T18:13:24.158Z,65.20
2019-03-02T18:15:47.050Z,65.30
2019-03-02T18:18:01.057Z,65.40
2019-03-02T18:20:07.395Z,65.40
2019-03-02T18:22:12.833Z,65.60
2019-03-02T18:24:18.274Z,65.60
2019-03-02T18:26:24.006Z,65.70
2019-03-02T18:28:30.338Z,65.70
2019-03-02T18:30:38.911Z,65.90
2019-03-02T18:32:43.039Z,65.90
2019-03-02T18:34:48.600Z,66.10
2019-03-02T18:36:54.211Z,66.00
2019-03-02T18:39:01.029Z,66.10
2019-03-02T18:41:06.751Z,66.10
2019-03-02T18:43:11.876Z,66.20
2019-03-02T18:45:17.233Z,66.30
2019-03-02T18:47:22.177Z,66.20
2019-03-02T18:49:42.012Z,66.20
2019-03-02T18:52:17.157Z,66.20
2019-03-02T18:54:22.205Z,66.20
2019-03-02T18:56:27.595Z,66.30
2019-03-02T18:58:32.582Z,66.20
2019-03-02T19:00:45.925Z,66.30
2019-03-02T19:02:51.351Z,66.40
2019-03-02T19:04:56.488Z,66.30
2019-03-02T19:07:03.409Z,66.40
2019-03-02T19:09:10.911Z,66.40
2019-03-02T19:11:18.997Z,66.40
2019-03-02T19:13:22.922Z,66.40
2019-03-02T19:15:28.643Z,66.50
2019-03-02T19:17:43.261Z,66.50
2019-03-02T19:19:48.816Z,67.30
2019-03-02T19:21:54.194Z,66.60
2019-03-02T19:23:59.714Z,66.60
2019-03-02T19:26:05.233Z,66.60
2019-03-02T19:28:10.300Z,66.60
2019-03-02T19:30:18.341Z,66.70
2019-03-02T19:32:23.769Z,66.60
2019-03-02T19:34:28.693Z,66.70
2019-03-02T19:36:35.077Z,66.70
2019-03-02T19:38:40.266Z,66.70
2019-03-02T19:40:45.779Z,66.60
2019-03-02T19:42:51.035Z,66.60
2019-03-02T19:44:56.457Z,66.70
2019-03-02T19:47:01.551Z,66.80
2019-03-02T19:49:07.255Z,66.90
2019-03-02T19:51:12.303Z,66.90
2019-03-02T19:53:17.870Z,67.00
2019-03-02T19:55:23.591Z,67.00
2019-03-02T19:57:28.641Z,67.10
2019-03-02T19:59:33.945Z,67.20
2019-03-02T20:01:40.867Z,67.20
2019-03-02T20:03:45.902Z,67.20
2019-03-02T20:05:51.190Z,67.20
2019-03-02T20:07:56.698Z,67.40
2019-03-02T20:10:02.211Z,67.30
2019-03-02T20:12:07.766Z,67.60
2019-03-02T20:14:12.988Z,67.60
2019-03-02T20:16:18.445Z,67.70
2019-03-02T20:18:23.837Z,67.70
2019-03-02T20:20:29.087Z,67.70
2019-03-02T20:22:34.307Z,67.80
2019-03-02T20:24:39.448Z,67.80
2019-03-02T20:26:44.691Z,67.80
2019-03-02T20:28:49.855Z,67.80
2019-03-02T20:30:54.997Z,67.90
2019-03-02T20:33:00.198Z,67.80
2019-03-02T20:35:05.912Z,67.70
2019-03-02T20:37:11.372Z,67.70
2019-03-02T20:39:16.524Z,67.70
2019-03-02T20:41:21.783Z,67.60
2019-03-02T20:43:26.870Z,67.50
2019-03-02T20:45:32.632Z,67.30
2019-03-02T20:47:37.691Z,67.30
2019-03-02T20:49:42.709Z,67.30
2019-03-02T20:51:47.988Z,67.40
2019-03-02T20:53:54.135Z,67.30
2019-03-02T20:55:59.542Z,67.30
2019-03-02T20:58:05.297Z,67.30
2019-03-02T21:00:21.228Z,68.30
2019-03-02T21:02:26.391Z,67.40
2019-03-02T21:04:31.524Z,67.30
2019-03-02T21:06:36.556Z,67.20
2019-03-02T21:08:42.048Z,67.40
2019-03-02T21:10:47.221Z,67.30
2019-03-02T21:12:52.723Z,67.40
2019-03-02T21:14:57.750Z,67.20
2019-03-02T21:17:03.135Z,67.30
2019-03-02T21:19:08.604Z,67.30
2019-03-02T21:21:14.871Z,67.30
2019-03-02T21:23:19.980Z,67.40
2019-03-02T21:25:25.073Z,67.40
2019-03-02T21:27:30.184Z,68.10
2019-03-02T21:29:35.235Z,67.30
2019-03-02T21:31:40.856Z,67.40
2019-03-02T21:33:46.217Z,67.20
2019-03-02T21:35:51.960Z,67.20
2019-03-02T21:37:57.341Z,67.10
2019-03-02T21:40:02.699Z,67.00
2019-03-02T21:42:08.110Z,67.00
2019-03-02T21:44:13.960Z,67.00
2019-03-02T21:46:19.159Z,67.00
2019-03-02T21:48:24.218Z,66.90
2019-03-02T21:50:30.281Z,66.90
2019-03-02T21:52:35.233Z,66.90
2019-03-02T21:54:40.597Z,66.80
2019-03-02T21:56:45.522Z,66.80
2019-03-02T21:58:50.650Z,66.80
2019-03-02T22:00:56.155Z,66.70
2019-03-02T22:03:01.156Z,66.60
2019-03-02T22:05:06.654Z,66.40
2019-03-02T22:07:11.942Z,66.40
2019-03-02T22:09:17.126Z,66.30
2019-03-02T22:11:22.145Z,66.30
2019-03-02T22:13:27.413Z,66.30
2019-03-02T22:15:32.445Z,66.20
2019-03-02T22:17:37.605Z,66.20
2019-03-02T22:19:42.648Z,66.10
2019-03-02T22:21:50.467Z,66.10
2019-03-02T22:23:55.691Z,66.20
2019-03-02T22:26:00.768Z,66.20
2019-03-02T22:28:05.981Z,66.30
2019-03-02T22:30:15.816Z,66.30
2019-03-02T22:32:21.019Z,66.10
2019-03-02T22:34:26.231Z,66.30
2019-03-02T22:36:31.128Z,66.30
2019-03-02T22:38:36.303Z,66.40
2019-03-02T22:40:41.865Z,66.40
2019-03-02T22:42:47.110Z,66.30
2019-03-02T22:44:52.197Z,66.20
2019-03-02T22:46:57.122Z,66.20
2019-03-02T22:49:02.454Z,66.40
2019-03-02T22:51:08.114Z,66.30
2019-03-02T22:53:13.461Z,66.30
2019-03-02T22:55:18.804Z,66.40
2019-03-02T22:57:23.866Z,66.40
2019-03-02T22:59:28.937Z,66.30
2019-03-02T23:01:52.299Z,66.40
2019-03-02T23:03:58.193Z,66.40
2019-03-02T23:06:03.648Z,66.30
2019-03-02T23:08:09.147Z,66.30
2019-03-02T23:10:14.615Z,66.10
2019-03-02T23:12:19.704Z,66.20
2019-03-02T23:14:24.990Z,66.20
2019-03-02T23:16:30.010Z,66.10
2019-03-02T23:18:35.010Z,66.00
2019-03-02T23:20:40.018Z,66.00
2019-03-02T23:22:45.410Z,66.00
2019-03-02T23:24:51.778Z,65.90
2019-03-02T23:26:57.188Z,65.80
2019-03-02T23:29:02.308Z,65.90
2019-03-02T23:31:08.657Z,65.80
2019-03-02T23:33:14.035Z,65.70
2019-03-02T23:35:20.012Z,65.50
2019-03-02T23:37:25.352Z,65.40
2019-03-02T23:39:30.422Z,65.30
2019-03-02T23:41:35.447Z,65.20
2019-03-02T23:43:40.827Z,65.10
2019-03-02T23:45:46.011Z,65.20
2019-03-02T23:49:59.113Z,65.20
2019-03-02T23:52:04.231Z,65.00
2019-03-02T23:54:09.538Z,65.00
2019-03-02T23:56:14.714Z,65.00
2019-03-02T23:58:19.839Z,64.90
